createdAt,value
2018-10-19T11:31:58.433Z,4.30
2018-10-19T11:32:58.366Z,4.40
2018-10-19T11:33:58.338Z,8.40
2018-10-19T11:34:58.237Z,9.10
2018-10-19T11:35:58.166Z,8.20
2018-10-19T11:36:58.152Z,8.50
2018-10-19T11:37:58.062Z,8.80
2018-10-19T11:38:57.947Z,8.70
2018-10-19T11:39:57.889Z,10.20
2018-10-19T11:40:57.730Z,10.00
2018-10-19T11:41:57.630Z,9.00
2018-10-19T11:42:57.595Z,9.30
2018-10-19T11:43:57.462Z,8.60
2018-10-19T11:44:57.345Z,9.60
2018-10-19T11:45:57.260Z,8.70
2018-10-19T11:46:57.142Z,9.20
2018-10-19T11:47:57.038Z,9.90
2018-10-19T11:48:57.128Z,10.10
2018-10-19T11:49:56.833Z,10.70
2018-10-19T11:50:56.730Z,10.90
2018-10-19T11:51:56.692Z,11.80
2018-10-19T11:52:56.540Z,11.30
2018-10-19T11:53:56.461Z,10.00
2018-10-19T11:54:56.380Z,10.50
2018-10-19T11:55:56.231Z,11.60
2018-10-19T11:56:56.184Z,10.80
2018-10-19T11:57:56.042Z,10.90
2018-10-19T11:58:55.962Z,11.10
2018-10-19T11:59:55.821Z,9.40
2018-10-19T12:00:55.752Z,8.50
2018-10-19T12:01:55.610Z,7.50
2018-10-19T12:02:55.506Z,8.50
2018-10-19T12:03:55.453Z,8.30
2018-10-19T12:04:55.319Z,7.00
2018-10-19T12:05:55.190Z,7.60
2018-10-19T12:06:55.122Z,6.50
2018-10-19T12:07:54.983Z,6.70
2018-10-19T12:08:54.870Z,6.20
2018-10-19T12:09:54.794Z,6.60
2018-10-19T12:10:54.664Z,6.30
2018-10-19T12:11:54.565Z,6.30
2018-10-19T12:12:54.499Z,6.10
2018-10-19T12:13:54.360Z,6.40
2018-10-19T12:14:54.309Z,6.50
2018-10-19T12:15:54.205Z,6.10
2018-10-19T12:16:54.123Z,6.30
2018-10-19T12:17:53.940Z,5.80
2018-10-19T12:18:53.877Z,5.90
2018-10-19T12:19:53.749Z,6.40
2018-10-19T12:20:53.715Z,6.10
2018-10-19T12:21:53.518Z,5.90
2018-10-19T12:22:53.412Z,6.00
2018-10-19T12:23:53.312Z,6.20
2018-10-19T12:24:53.269Z,6.30
2018-10-19T12:25:53.112Z,5.90
2018-10-19T12:26:53.008Z,6.10
2018-10-19T12:27:52.899Z,5.90
2018-10-19T12:28:52.793Z,6.20
2018-10-19T12:29:52.712Z,5.90
2018-10-19T12:30:52.580Z,5.90
2018-10-19T12:31:52.481Z,5.70
2018-10-19T12:32:52.390Z,6.00
2018-10-19T12:33:52.270Z,6.00
2018-10-19T12:34:52.189Z,5.40
2018-10-19T12:35:52.058Z,5.70
2018-10-19T12:36:51.949Z,5.80
2018-10-19T12:37:51.844Z,5.90
2018-10-19T12:38:51.739Z,5.40
2018-10-19T12:39:51.661Z,5.40
2018-10-19T12:40:51.565Z,5.90
2018-10-19T12:41:51.420Z,5.90
2018-10-19T12:42:51.317Z,5.50
2018-10-19T12:43:51.208Z,5.80
2018-10-19T12:44:51.127Z,5.60
2018-10-19T12:45:50.995Z,7.10
2018-10-19T12:46:50.886Z,6.60
2018-10-19T12:47:50.778Z,6.80
2018-10-19T12:48:50.679Z,6.60
2018-10-19T12:49:50.607Z,8.30
2018-10-19T12:50:50.463Z,8.00
2018-10-19T12:51:50.358Z,7.50
2018-10-19T12:52:50.253Z,7.00
2018-10-19T12:53:50.214Z,6.80
2018-10-19T12:54:50.038Z,6.80
2018-10-19T12:55:49.957Z,6.10
2018-10-19T12:56:49.823Z,6.20
2018-10-19T12:57:49.712Z,6.20
2018-10-19T12:58:49.599Z,6.20
2018-10-19T12:59:49.491Z,6.20
2018-10-19T13:00:49.408Z,6.00
2018-10-19T13:01:49.276Z,6.40
2018-10-19T13:02:49.169Z,7.60
2018-10-19T13:03:49.058Z,7.80
2018-10-19T13:04:48.952Z,7.40
2018-10-19T13:05:48.872Z,7.40
2018-10-19T13:06:48.738Z,7.60
2018-10-19T13:07:48.629Z,7.80
2018-10-19T13:08:48.520Z,7.60
2018-10-19T13:09:48.410Z,7.80
2018-10-19T13:10:48.326Z,7.40
2018-10-19T13:11:48.187Z,7.20
2018-10-19T13:12:48.083Z,6.80
2018-10-19T13:13:47.978Z,6.90
2018-10-19T13:14:47.877Z,6.90
2018-10-19T13:15:47.799Z,6.40
2018-10-19T13:16:47.669Z,6.50
2018-10-19T13:17:47.562Z,6.70
2018-10-19T13:18:47.458Z,6.40
2018-10-19T13:19:47.351Z,6.90
2018-10-19T13:20:47.276Z,7.00
2018-10-19T13:21:47.139Z,6.70
2018-10-19T13:22:47.021Z,6.30
2018-10-19T13:23:46.913Z,7.00
2018-10-19T13:24:46.805Z,6.90
2018-10-19T13:25:46.717Z,6.40
2018-10-19T13:26:46.578Z,6.90
2018-10-19T13:27:46.463Z,6.50
2018-10-19T13:28:46.354Z,6.40
2018-10-19T13:29:46.239Z,6.70
2018-10-19T13:30:46.158Z,6.60
2018-10-19T13:31:46.013Z,6.90
2018-10-19T13:32:45.902Z,6.80
2018-10-19T13:33:45.789Z,6.90
2018-10-19T13:34:45.682Z,7.80
2018-10-19T13:35:45.564Z,6.80
2018-10-19T13:36:45.481Z,8.60
2018-10-19T13:37:45.342Z,7.50
2018-10-19T13:38:45.229Z,7.20
2018-10-19T13:39:45.150Z,9.30
2018-10-19T13:40:45.007Z,9.70
2018-10-19T13:41:44.976Z,9.30
2018-10-19T13:42:44.781Z,7.90
2018-10-19T13:43:44.673Z,7.70
2018-10-19T13:44:44.569Z,7.40
2018-10-19T13:45:44.515Z,7.50
2018-10-19T13:46:44.385Z,7.10
2018-10-19T13:47:44.253Z,7.10
2018-10-19T13:48:44.146Z,7.80
2018-10-19T13:49:44.040Z,8.40
2018-10-19T13:50:43.931Z,7.40
2018-10-19T13:51:43.848Z,7.50
2018-10-19T13:52:43.717Z,7.80
2018-10-19T13:53:43.614Z,7.40
2018-10-19T13:54:43.513Z,7.40
2018-10-19T13:55:43.408Z,7.10
2018-10-19T13:56:43.322Z,7.40
2018-10-19T13:57:43.183Z,6.90
2018-10-19T13:58:43.073Z,6.90
2018-10-19T13:59:42.964Z,6.90
2018-10-19T14:00:42.853Z,7.30
2018-10-19T14:01:42.774Z,8.50
2018-10-19T14:02:42.638Z,7.70
2018-10-19T14:03:42.528Z,7.60
2018-10-19T14:04:42.437Z,8.80
2018-10-19T14:05:42.427Z,8.70
2018-10-19T14:06:42.211Z,8.00
2018-10-19T14:07:42.080Z,8.40
2018-10-19T14:08:41.968Z,8.30
2018-10-19T14:09:41.858Z,7.30
2018-10-19T14:10:41.752Z,8.50
2018-10-19T14:11:41.672Z,7.80
2018-10-19T14:12:41.539Z,8.40
2018-10-19T14:13:41.429Z,8.50
2018-10-19T14:14:41.324Z,9.10
2018-10-19T14:15:41.206Z,8.50
2018-10-19T14:16:41.116Z,8.40
2018-10-19T14:17:40.982Z,8.90
2018-10-19T14:18:40.876Z,9.40
2018-10-19T14:19:40.755Z,8.50
2018-10-19T14:20:40.643Z,9.20
2018-10-19T14:21:40.558Z,9.40
2018-10-19T14:22:40.423Z,9.40
2018-10-19T14:23:40.309Z,8.70
2018-10-19T14:24:40.197Z,9.30
2018-10-19T14:25:40.085Z,10.10
2018-10-19T14:26:40.013Z,8.60
2018-10-19T14:27:39.861Z,8.60
2018-10-19T14:28:39.750Z,8.30
2018-10-19T14:29:39.643Z,8.50
2018-10-19T14:30:39.528Z,8.90
2018-10-19T14:31:39.465Z,9.00
2018-10-19T14:32:39.307Z,9.10
2018-10-19T14:33:39.275Z,9.20
2018-10-19T14:34:39.093Z,8.90
2018-10-19T14:35:38.986Z,8.80
2018-10-19T14:36:38.872Z,9.80
2018-10-19T14:37:38.791Z,9.30
2018-10-19T14:38:38.660Z,9.10
2018-10-19T14:39:38.553Z,8.10
2018-10-19T14:40:38.444Z,8.70
2018-10-19T14:41:38.329Z,9.10
2018-10-19T14:42:38.244Z,9.00
2018-10-19T14:43:38.105Z,8.60
2018-10-19T14:44:37.993Z,9.50
2018-10-19T14:45:37.886Z,8.60
2018-10-19T14:46:37.772Z,9.00
2018-10-19T14:47:37.689Z,9.40
2018-10-19T14:48:37.552Z,9.60
2018-10-19T14:49:37.444Z,9.10
2018-10-19T14:50:37.333Z,9.80
2018-10-19T14:51:37.224Z,9.80
2018-10-19T14:52:37.141Z,9.40
2018-10-19T14:53:37.006Z,9.00
2018-10-19T14:54:36.914Z,8.60
2018-10-19T14:55:36.788Z,9.30
2018-10-19T14:56:36.676Z,9.00
2018-10-19T14:57:36.593Z,9.20
2018-10-19T14:58:36.462Z,9.10
2018-10-19T14:59:36.358Z,9.30
2018-10-19T15:00:36.250Z,9.60
2018-10-19T15:01:36.144Z,8.70
2018-10-19T15:02:36.064Z,9.10
2018-10-19T15:03:35.931Z,9.00
2018-10-19T15:04:35.825Z,9.00
2018-10-19T15:05:35.715Z,9.10
2018-10-19T15:06:35.600Z,9.10
2018-10-19T15:07:35.519Z,8.90
2018-10-19T15:08:35.384Z,8.50
2018-10-19T15:09:35.290Z,8.90
2018-10-19T15:10:35.308Z,8.40
2018-10-19T15:11:35.293Z,8.70
2018-10-19T15:12:34.976Z,8.90
2018-10-19T15:13:34.844Z,8.50
2018-10-19T15:14:34.736Z,8.60
2018-10-19T15:15:34.625Z,8.50
2018-10-19T15:16:34.513Z,8.30
2018-10-19T15:17:34.434Z,8.40
2018-10-19T15:18:34.365Z,8.70
2018-10-19T15:19:34.175Z,8.10
2018-10-19T15:20:34.060Z,8.10
2018-10-19T15:21:33.946Z,8.90
2018-10-19T15:22:33.874Z,8.40
2018-10-19T15:23:33.729Z,8.40
2018-10-19T15:24:33.616Z,8.30
2018-10-19T15:25:33.504Z,8.60
2018-10-19T15:26:33.393Z,8.80
2018-10-19T15:27:33.272Z,9.10
2018-10-19T15:28:33.180Z,8.80
2018-10-19T15:29:33.124Z,8.00
2018-10-19T15:30:32.929Z,9.10
2018-10-19T15:31:32.806Z,9.70
2018-10-19T15:32:32.699Z,8.80
2018-10-19T15:33:32.615Z,8.80
2018-10-19T15:34:32.482Z,8.30
2018-10-19T15:35:32.374Z,8.70
2018-10-19T15:36:32.308Z,8.70
2018-10-19T15:37:32.156Z,8.20
2018-10-19T15:38:32.070Z,8.90
2018-10-19T15:39:31.935Z,8.20
2018-10-19T15:40:31.817Z,8.40
2018-10-19T15:41:31.759Z,8.50
2018-10-19T15:42:31.597Z,8.20
2018-10-19T15:43:31.513Z,8.20
2018-10-19T15:44:31.376Z,8.00
2018-10-19T15:45:31.270Z,7.60
2018-10-19T15:46:31.220Z,7.90
2018-10-19T15:47:31.048Z,8.30
2018-10-19T15:48:30.963Z,8.10
2018-10-19T15:49:30.828Z,7.70
2018-10-19T15:50:30.716Z,7.90
2018-10-19T15:51:30.605Z,8.40
2018-10-19T15:52:30.493Z,8.00
2018-10-19T15:53:30.412Z,7.70
2018-10-19T15:54:30.277Z,7.80
2018-10-19T15:55:30.163Z,8.00
2018-10-19T15:56:30.047Z,7.90
2018-10-19T15:57:29.936Z,7.90
2018-10-19T15:58:29.842Z,7.50
2018-10-19T15:59:29.702Z,7.60
2018-10-19T16:00:29.715Z,7.60
2018-10-19T16:01:29.475Z,7.60
2018-10-19T16:02:29.364Z,7.70
2018-10-19T16:03:29.276Z,8.80
2018-10-19T16:04:29.139Z,10.70
2018-10-19T16:05:29.028Z,8.90
2018-10-19T16:06:28.919Z,9.00
2018-10-19T16:07:28.805Z,7.70
2018-10-19T16:08:28.712Z,8.00
2018-10-19T16:09:28.573Z,8.00
2018-10-19T16:10:28.547Z,8.70
2018-10-19T16:11:28.352Z,9.40
2018-10-19T16:12:28.231Z,9.50
2018-10-19T16:13:28.143Z,10.40
2018-10-19T16:14:28.001Z,9.30
2018-10-19T16:15:27.893Z,8.70
2018-10-19T16:16:27.782Z,8.50
2018-10-19T16:17:27.682Z,8.30
2018-10-19T16:18:27.584Z,7.90
2018-10-19T16:19:27.444Z,8.90
2018-10-19T16:20:27.339Z,10.50
2018-10-19T16:21:27.226Z,10.50
2018-10-19T16:22:27.112Z,10.00
2018-10-19T16:23:27.030Z,9.20
2018-10-19T16:24:26.891Z,9.10
2018-10-19T16:25:26.778Z,8.40
2018-10-19T16:26:26.662Z,8.80
2018-10-19T16:27:26.602Z,8.90
2018-10-19T16:28:26.548Z,8.40
2018-10-19T16:29:26.319Z,8.80
2018-10-19T16:30:26.211Z,9.10
2018-10-19T16:31:26.098Z,9.40
2018-10-19T16:32:25.990Z,10.10
2018-10-19T16:33:25.873Z,9.50
2018-10-19T16:34:25.783Z,9.00
2018-10-19T16:35:25.647Z,8.00
2018-10-19T16:36:25.532Z,10.10
2018-10-19T16:37:25.416Z,11.80
2018-10-19T16:38:25.300Z,11.00
2018-10-19T16:39:25.212Z,10.70
2018-10-19T16:40:25.075Z,9.30
2018-10-19T16:41:24.966Z,8.80
2018-10-19T16:42:24.850Z,8.10
2018-10-19T16:43:24.737Z,8.60
2018-10-19T16:44:24.650Z,8.10
2018-10-19T16:45:24.513Z,7.80
2018-10-19T16:46:24.551Z,9.20
2018-10-19T16:47:24.288Z,9.20
2018-10-19T16:48:24.180Z,8.70
2018-10-19T16:49:24.097Z,8.90
2018-10-19T16:50:23.961Z,9.30
2018-10-19T16:51:23.850Z,9.90
2018-10-19T16:52:23.829Z,9.70
2018-10-19T16:53:23.626Z,10.20
2018-10-19T16:54:23.540Z,10.40
2018-10-19T16:55:23.401Z,9.10
2018-10-19T16:56:23.290Z,9.60
2018-10-19T16:57:23.180Z,10.10
2018-10-19T16:58:23.065Z,9.60
2018-10-19T16:59:22.974Z,9.30
2018-10-19T17:00:22.834Z,11.10
2018-10-19T17:01:22.713Z,9.90
2018-10-19T17:02:22.601Z,10.00
2018-10-19T17:03:22.510Z,10.10
2018-10-19T17:04:22.390Z,9.90
2018-10-19T17:05:22.305Z,9.80
2018-10-19T17:06:22.137Z,10.00
2018-10-19T17:07:22.024Z,9.80
2018-10-19T17:08:21.913Z,9.70
2018-10-19T17:09:21.826Z,10.50
2018-10-19T17:10:21.685Z,10.20
2018-10-19T17:11:21.574Z,10.20
2018-10-19T17:12:21.455Z,10.50
2018-10-19T17:13:21.339Z,10.50
2018-10-19T17:14:21.253Z,10.60
2018-10-19T17:15:21.119Z,10.00
2018-10-19T17:16:21.004Z,10.70
2018-10-19T17:17:20.891Z,9.70
2018-10-19T17:18:20.776Z,11.40
2018-10-19T17:19:20.738Z,10.20
2018-10-19T17:20:20.564Z,9.80
2018-10-19T17:21:20.451Z,10.40
2018-10-19T17:22:20.343Z,10.80
2018-10-19T17:23:20.230Z,10.50
2018-10-19T17:24:20.237Z,10.00
2018-10-19T17:25:20.146Z,10.20
2018-10-19T17:26:19.890Z,10.50
2018-10-19T17:27:19.776Z,11.30
2018-10-19T17:28:19.663Z,11.50
2018-10-19T17:29:19.573Z,11.30
2018-10-19T17:30:19.529Z,10.40
2018-10-19T17:31:19.341Z,10.30
2018-10-19T17:32:19.216Z,11.80
2018-10-19T17:33:19.176Z,11.50
2018-10-19T17:34:19.018Z,10.80
2018-10-19T17:35:18.878Z,11.20
2018-10-19T17:36:18.767Z,11.60
2018-10-19T17:37:18.652Z,11.00
2018-10-19T17:38:18.537Z,11.00
2018-10-19T17:39:18.546Z,11.20
2018-10-19T17:40:18.303Z,11.90
2018-10-19T17:41:18.185Z,11.60
2018-10-19T17:42:18.074Z,11.50
2018-10-19T17:43:18.006Z,12.10
2018-10-19T17:44:17.862Z,12.00
2018-10-19T17:45:17.726Z,11.90
2018-10-19T17:46:17.614Z,10.80
2018-10-19T17:47:17.498Z,11.80
2018-10-19T17:48:17.467Z,11.50
2018-10-19T17:49:17.433Z,11.10
2018-10-19T17:50:17.164Z,10.50
2018-10-19T17:51:17.163Z,10.80
2018-10-19T17:52:16.938Z,10.20
2018-10-19T17:53:16.958Z,9.90
2018-10-19T17:54:16.780Z,10.30
2018-10-19T17:55:16.598Z,9.60
2018-10-19T17:56:16.486Z,10.10
2018-10-19T17:57:16.380Z,10.00
2018-10-19T17:58:16.257Z,10.80
2018-10-19T17:59:16.247Z,10.90
2018-10-19T18:00:16.088Z,11.90
2018-10-19T18:01:15.924Z,11.20
2018-10-19T18:02:15.818Z,10.60
2018-10-19T18:03:15.747Z,11.80
2018-10-19T18:04:15.633Z,12.50
2018-10-19T18:05:15.632Z,11.50
2018-10-19T18:06:15.418Z,11.20
2018-10-19T18:07:15.244Z,11.40
2018-10-19T18:08:15.131Z,11.40
2018-10-19T18:09:15.151Z,12.50
2018-10-19T18:10:14.935Z,11.60
2018-10-19T18:11:14.877Z,11.30
2018-10-19T18:12:14.690Z,10.70
2018-10-19T18:13:14.582Z,11.50
2018-10-19T18:14:14.468Z,10.90
2018-10-19T18:15:14.501Z,11.60
2018-10-19T18:16:14.262Z,10.90
2018-10-19T18:17:14.128Z,11.00
2018-10-19T18:18:14.004Z,11.60
2018-10-19T18:19:13.894Z,10.60
2018-10-19T18:20:13.810Z,10.10
2018-10-19T18:21:13.781Z,10.80
2018-10-19T18:22:13.906Z,11.10
2018-10-19T18:23:13.710Z,10.90
2018-10-19T18:24:13.332Z,11.00
2018-10-19T18:25:13.244Z,12.00
2018-10-19T18:26:13.187Z,12.20
2018-10-19T18:27:13.067Z,12.40
2018-10-19T18:28:12.876Z,13.80
2018-10-19T18:29:12.868Z,13.00
2018-10-19T18:30:12.673Z,12.80
2018-10-19T18:31:12.535Z,12.00
2018-10-19T18:32:12.466Z,12.40
2018-10-19T18:33:12.304Z,13.10
2018-10-19T18:34:12.188Z,11.60
2018-10-19T18:35:12.137Z,11.60
2018-10-19T18:36:11.964Z,12.30
2018-10-19T18:37:11.850Z,11.50
2018-10-19T18:38:11.820Z,12.20
2018-10-19T18:39:11.623Z,12.50
2018-10-19T18:40:11.531Z,12.30
2018-10-19T18:41:11.526Z,12.90
2018-10-19T18:42:11.278Z,13.00
2018-10-19T18:43:11.169Z,12.90
2018-10-19T18:44:11.125Z,12.70
2018-10-19T18:45:10.966Z,12.70
2018-10-19T18:46:10.827Z,13.60
2018-10-19T18:47:10.772Z,13.90
2018-10-19T18:48:10.609Z,12.80
2018-10-19T18:49:10.502Z,11.90
2018-10-19T18:50:10.561Z,13.40
2018-10-19T18:51:10.283Z,13.50
2018-10-19T18:52:10.176Z,12.80
2018-10-19T18:53:10.140Z,12.00
2018-10-19T18:54:09.960Z,11.90
2018-10-19T18:55:09.948Z,11.10
2018-10-19T18:56:09.765Z,10.40
2018-10-19T18:57:09.635Z,10.70
2018-10-19T18:58:09.527Z,10.10
2018-10-19T18:59:09.521Z,10.60
2018-10-19T19:00:09.329Z,10.80
2018-10-19T19:01:09.192Z,10.50
2018-10-19T19:02:09.186Z,11.30
2018-10-19T19:03:08.973Z,11.60
2018-10-19T19:04:08.860Z,11.60
2018-10-19T19:05:08.878Z,10.70
2018-10-19T19:06:08.645Z,11.20
2018-10-19T19:07:08.534Z,11.50
2018-10-19T19:08:08.454Z,11.00
2018-10-19T19:09:08.317Z,11.10
2018-10-19T19:10:08.235Z,10.90
2018-10-19T19:11:08.193Z,10.80
2018-10-19T19:12:07.990Z,10.90
2018-10-19T19:13:07.880Z,11.10
2018-10-19T19:14:07.777Z,11.00
2018-10-19T19:15:07.684Z,10.60
2018-10-19T19:16:07.549Z,11.00
2018-10-19T19:17:07.492Z,11.80
2018-10-19T19:18:07.334Z,11.00
2018-10-19T19:19:07.228Z,11.90
2018-10-19T19:20:07.198Z,12.10
2018-10-19T19:21:07.004Z,11.10
2018-10-19T19:22:06.888Z,11.70
2018-10-19T19:23:06.783Z,12.20
2018-10-19T19:24:06.674Z,12.30
2018-10-19T19:25:06.587Z,12.10
2018-10-19T19:26:06.500Z,12.90
2018-10-19T19:27:06.340Z,13.00
2018-10-19T19:28:06.226Z,13.50
2018-10-19T19:29:06.130Z,13.60
2018-10-19T19:30:06.031Z,12.90
2018-10-19T19:31:05.926Z,12.80
2018-10-19T19:32:05.895Z,12.30
2018-10-19T19:33:05.678Z,13.80
2018-10-19T19:34:05.573Z,13.20
2018-10-19T19:35:05.526Z,13.40
2018-10-19T19:36:05.386Z,13.00
2018-10-19T19:37:05.258Z,13.30
2018-10-19T19:38:05.186Z,13.20
2018-10-19T19:39:05.039Z,12.90
2018-10-19T19:40:04.938Z,13.90
2018-10-19T19:41:04.889Z,13.20
2018-10-19T19:42:04.723Z,13.20
